Time;durP1;ratioP1;P1;durP2;ratioP2;P2;SDS_P1;SDS_P2;PMS_P1;PMS_P2;Temp;Humidity;BMP_temperature;BMP_pressure;BME280_temperature;BME280_humidity;BME280_pressure;Samples;Min_cycle;Max_cycle;Signal;HPM_P1;HPM_P2
2022/01/10 00:02:26;;;;;;;14.20;4.87;;;;;;;;;;6105256;28;20575;-67
2022/01/10 00:05:47;;;;;;;9.73;4.07;;;;;;;;;;6094584;28;20228;-68
2022/01/10 00:09:07;;;;;;;11.63;3.83;;;;;;;;;;6101725;28;20227;-66
2022/01/10 00:12:28;;;;;;;9.27;3.07;;;;;;;;;;6108426;28;20616;-67
2022/01/10 00:15:50;;;;;;;9.23;3.60;;;;;;;;;;6091899;28;20240;-66
2022/01/10 00:19:10;;;;;;;10.23;4.00;;;;;;;;;;6108066;28;20232;-66
2022/01/10 00:22:32;;;;;;;12.77;4.47;;;;;;;;;;6111640;28;20232;-66
2022/01/10 00:25:52;;;;;;;7.37;3.90;;;;;;;;;;6112925;28;20240;-67
2022/01/10 00:29:12;;;;;;;11.50;3.80;;;;;;;;;;6114197;28;20235;-67
2022/01/10 00:32:35;;;;;;;10.03;4.40;;;;;;;;;;6114343;28;20239;-66
2022/01/10 00:35:56;;;;;;;11.43;4.07;;;;;;;;;;6126493;28;20235;-66
2022/01/10 00:39:16;;;;;;;12.27;5.87;;;;;;;;;;6116730;28;20859;-67
2022/01/10 00:42:37;;;;;;;9.63;4.00;;;;;;;;;;6107827;28;20310;-66
2022/01/10 00:45:59;;;;;;;13.73;3.50;;;;;;;;;;6104289;28;20804;-66
2022/01/10 00:49:21;;;;;;;8.83;3.53;;;;;;;;;;6112850;28;20223;-66
2022/01/10 00:52:42;;;;;;;15.87;4.33;;;;;;;;;;6130917;28;20552;-67
2022/01/10 00:56:02;;;;;;;11.63;3.63;;;;;;;;;;6099527;28;20657;-67
2022/01/10 00:59:23;;;;;;;9.37;4.67;;;;;;;;;;6124726;28;20239;-66
2022/01/10 01:02:44;;;;;;;8.77;4.50;;;;;;;;;;6113802;28;21668;-66
2022/01/10 01:06:06;;;;;;;17.17;4.70;;;;;;;;;;6113304;28;20235;-66
2022/01/10 01:09:29;;;;;;;8.33;3.20;;;;;;;;;;6109095;28;20739;-65
2022/01/10 01:12:54;;;;;;;9.57;3.87;;;;;;;;;;6112316;28;20668;-67
2022/01/10 01:16:18;;;;;;;7.27;3.30;;;;;;;;;;6113129;28;20235;-65
2022/01/10 01:20:08;;;;;;;11.87;4.57;;;;;;;;;;6123563;28;20516;-67
2022/01/10 01:27:08;;;;;;;7.43;3.47;;;;;;;;;;6112969;28;20333;-66
2022/01/10 01:30:29;;;;;;;9.67;4.43;;;;;;;;;;6107836;28;20247;-66
2022/01/10 01:33:49;;;;;;;12.87;4.20;;;;;;;;;;6115677;28;20240;-67
2022/01/10 01:37:11;;;;;;;8.53;4.33;;;;;;;;;;6113765;28;20236;-66
2022/01/10 01:40:34;;;;;;;12.27;3.67;;;;;;;;;;6115997;28;20235;-67
2022/01/10 01:43:57;;;;;;;8.70;3.83;;;;;;;;;;6114854;28;20256;-66
2022/01/10 01:47:18;;;;;;;7.33;3.33;;;;;;;;;;6109882;28;20247;-66
2022/01/10 01:50:40;;;;;;;7.37;5.43;;;;;;;;;;6120039;28;20755;-66
2022/01/10 01:54:01;;;;;;;12.53;5.17;;;;;;;;;;6096294;28;20239;-66
2022/01/10 01:57:24;;;;;;;8.97;4.20;;;;;;;;;;6119021;28;20232;-67
2022/01/10 02:00:45;;;;;;;9.43;4.30;;;;;;;;;;6108171;28;20232;-67
2022/01/10 02:04:05;;;;;;;9.57;4.00;;;;;;;;;;6111534;28;20231;-66
2022/01/10 02:07:26;;;;;;;8.90;4.70;;;;;;;;;;6109601;28;20291;-66
2022/01/10 02:10:47;;;;;;;13.80;4.90;;;;;;;;;;6110090;28;20657;-66
2022/01/10 02:14:09;;;;;;;11.23;4.40;;;;;;;;;;6129335;28;20230;-65
2022/01/10 02:17:37;;;;;;;11.80;5.77;;;;;;;;;;6112213;28;20232;-66
2022/01/10 02:21:09;;;;;;;9.23;4.37;;;;;;;;;;6126452;28;20231;-66
2022/01/10 02:24:29;;;;;;;11.13;6.33;;;;;;;;;;6113799;28;20802;-67
2022/01/10 02:27:53;;;;;;;10.57;4.33;;;;;;;;;;6123250;28;20232;-66
2022/01/10 02:31:14;;;;;;;12.17;5.40;;;;;;;;;;6123899;28;20665;-66
2022/01/10 02:34:34;;;;;;;11.80;5.40;;;;;;;;;;6092207;28;20264;-66
2022/01/10 02:37:56;;;;;;;7.97;4.97;;;;;;;;;;6107441;28;20224;-66
2022/01/10 02:41:24;;;;;;;11.87;5.60;;;;;;;;;;6083988;28;20268;-66
2022/01/10 02:44:46;;;;;;;10.67;5.20;;;;;;;;;;6109041;28;21853;-66
2022/01/10 02:48:06;;;;;;;10.10;5.00;;;;;;;;;;6095168;28;20233;-66
2022/01/10 02:51:27;;;;;;;13.30;6.37;;;;;;;;;;6110082;28;20545;-66
2022/01/10 02:54:49;;;;;;;7.93;5.57;;;;;;;;;;6111145;28;20240;-66
2022/01/10 02:58:12;;;;;;;13.60;6.30;;;;;;;;;;6124111;28;20240;-67
2022/01/10 03:01:33;;;;;;;13.07;6.80;;;;;;;;;;6128917;28;20323;-66
2022/01/10 03:04:53;;;;;;;14.93;7.07;;;;;;;;;;6120280;28;20220;-66
2022/01/10 03:08:14;;;;;;;11.43;5.50;;;;;;;;;;6112615;28;20242;-66
2022/01/10 03:11:36;;;;;;;13.37;5.63;;;;;;;;;;6109974;28;20236;-66
2022/01/10 03:14:57;;;;;;;12.63;5.50;;;;;;;;;;6110243;28;20228;-67
2022/01/10 03:18:19;;;;;;;11.03;5.70;;;;;;;;;;6124986;28;20240;-66
2022/01/10 03:21:40;;;;;;;14.63;6.90;;;;;;;;;;6122655;28;20232;-66
2022/01/10 03:25:01;;;;;;;8.23;4.67;;;;;;;;;;6109867;28;20228;-66
2022/01/10 03:28:24;;;;;;;10.43;5.27;;;;;;;;;;6114374;28;20488;-66
2022/01/10 03:31:45;;;;;;;12.63;7.43;;;;;;;;;;6115144;28;20504;-65
2022/01/10 03:35:07;;;;;;;15.93;7.03;;;;;;;;;;6128001;28;20227;-67
2022/01/10 03:38:28;;;;;;;11.33;5.47;;;;;;;;;;6112338;28;20634;-66
2022/01/10 03:41:48;;;;;;;14.23;6.93;;;;;;;;;;6115190;28;20554;-67
2022/01/10 03:45:10;;;;;;;10.83;5.90;;;;;;;;;;6129193;28;20305;-67
2022/01/10 03:48:31;;;;;;;10.47;6.50;;;;;;;;;;6125752;28;20315;-65
2022/01/10 03:51:52;;;;;;;15.73;7.60;;;;;;;;;;6127525;28;20307;-65
2022/01/10 03:55:13;;;;;;;23.63;10.50;;;;;;;;;;6127675;28;20319;-67
2022/01/10 03:58:33;;;;;;;19.20;9.67;;;;;;;;;;6119102;28;20350;-66
2022/01/10 04:01:55;;;;;;;17.03;10.37;;;;;;;;;;6116640;28;20227;-66
2022/01/10 04:05:16;;;;;;;14.67;8.40;;;;;;;;;;6112496;28;20299;-67
2022/01/10 04:08:37;;;;;;;10.17;7.40;;;;;;;;;;6116898;28;20236;-65
2022/01/10 04:11:58;;;;;;;17.87;14.27;;;;;;;;;;6116276;28;20232;-66
2022/01/10 04:15:18;;;;;;;37.53;31.93;;;;;;;;;;6132682;28;20236;-65
2022/01/10 04:18:41;;;;;;;25.50;16.50;;;;;;;;;;6135963;28;20220;-66
2022/01/10 04:22:03;;;;;;;22.63;10.30;;;;;;;;;;6123774;28;20255;-67
2022/01/10 04:25:24;;;;;;;15.23;9.13;;;;;;;;;;6132993;28;20236;-66
2022/01/10 04:28:46;;;;;;;13.60;9.23;;;;;;;;;;6119023;28;20317;-66
2022/01/10 04:32:08;;;;;;;13.03;9.13;;;;;;;;;;6113234;28;20236;-65
2022/01/10 04:35:31;;;;;;;12.93;7.90;;;;;;;;;;6124215;28;20878;-66
2022/01/10 04:38:52;;;;;;;8.97;6.70;;;;;;;;;;6114427;28;20538;-67
2022/01/10 04:42:13;;;;;;;9.33;7.07;;;;;;;;;;6116694;28;20232;-66
2022/01/10 04:45:33;;;;;;;6.97;4.83;;;;;;;;;;6125654;28;20257;-67
2022/01/10 04:48:54;;;;;;;5.07;4.57;;;;;;;;;;6127017;28;20236;-67
2022/01/10 04:52:16;;;;;;;6.37;5.10;;;;;;;;;;6119244;28;20232;-66
2022/01/10 04:55:36;;;;;;;4.77;4.23;;;;;;;;;;6115288;28;20330;-66
2022/01/10 04:58:57;;;;;;;5.57;3.93;;;;;;;;;;6117357;28;20236;-66
2022/01/10 05:02:19;;;;;;;4.77;4.37;;;;;;;;;;6128904;28;20752;-66
2022/01/10 05:05:39;;;;;;;5.33;4.80;;;;;;;;;;6114600;28;20242;-67
2022/01/10 05:09:01;;;;;;;5.80;5.27;;;;;;;;;;6125025;28;20228;-65
2022/01/10 05:12:38;;;;;;;4.63;4.23;;;;;;;;;;6129537;28;20224;-67
2022/01/10 05:15:59;;;;;;;4.80;4.40;;;;;;;;;;6111236;28;20575;-67
2022/01/10 05:19:20;;;;;;;6.13;5.63;;;;;;;;;;6116448;28;20228;-65
2022/01/10 05:22:41;;;;;;;6.20;5.73;;;;;;;;;;6130544;28;20228;-66
2022/01/10 05:26:03;;;;;;;6.60;6.00;;;;;;;;;;6114014;28;20248;-66
2022/01/10 05:29:24;;;;;;;5.97;5.43;;;;;;;;;;6121679;28;20519;-65
2022/01/10 05:32:45;;;;;;;6.03;5.63;;;;;;;;;;6119851;28;20236;-66
2022/01/10 05:36:13;;;;;;;6.50;6.00;;;;;;;;;;6110250;28;20239;-66
2022/01/10 05:39:36;;;;;;;8.73;7.93;;;;;;;;;;6126038;28;20228;-66
2022/01/10 05:42:58;;;;;;;9.00;8.23;;;;;;;;;;6112891;28;20622;-66
2022/01/10 05:46:21;;;;;;;8.77;8.07;;;;;;;;;;6124855;28;20240;-66
2022/01/10 05:49:47;;;;;;;10.17;9.20;;;;;;;;;;6114243;28;20619;-66
2022/01/10 05:53:10;;;;;;;9.13;8.33;;;;;;;;;;6118295;28;20228;-67
2022/01/10 05:56:32;;;;;;;9.50;8.70;;;;;;;;;;6122609;28;20231;-67
2022/01/10 05:59:54;;;;;;;9.27;8.47;;;;;;;;;;6126528;28;20235;-67
2022/01/10 06:03:15;;;;;;;9.60;8.80;;;;;;;;;;6125498;28;20231;-67
2022/01/10 06:06:42;;;;;;;11.00;10.00;;;;;;;;;;6126753;28;20669;-66
2022/01/10 06:10:03;;;;;;;9.40;8.60;;;;;;;;;;6109221;28;20231;-66
2022/01/10 06:13:24;;;;;;;9.73;8.83;;;;;;;;;;6123416;28;20299;-66
2022/01/10 06:16:47;;;;;;;10.43;9.53;;;;;;;;;;6110081;28;20315;-66
2022/01/10 06:20:08;;;;;;;10.90;10.00;;;;;;;;;;6126141;28;20231;-66
2022/01/10 06:23:28;;;;;;;10.30;9.40;;;;;;;;;;6126475;28;20309;-66
2022/01/10 06:26:49;;;;;;;9.90;9.10;;;;;;;;;;6123456;28;20244;-65
2022/01/10 06:30:12;;;;;;;9.87;9.07;;;;;;;;;;6121366;28;20232;-66
2022/01/10 06:33:37;;;;;;;11.60;10.53;;;;;;;;;;6110778;28;20268;-65
2022/01/10 06:36:59;;;;;;;10.93;9.93;;;;;;;;;;6122128;28;20235;-66
2022/01/10 06:40:20;;;;;;;9.40;8.50;;;;;;;;;;6103836;28;20236;-67
2022/01/10 06:43:42;;;;;;;10.27;9.30;;;;;;;;;;6117737;28;20240;-65
2022/01/10 06:47:05;;;;;;;11.13;10.03;;;;;;;;;;6119607;28;20277;-67
2022/01/10 06:50:27;;;;;;;9.40;8.63;;;;;;;;;;6107347;28;20255;-65
2022/01/10 06:53:47;;;;;;;10.93;9.87;;;;;;;;;;6096608;28;20621;-66
2022/01/10 06:57:08;;;;;;;11.60;9.47;;;;;;;;;;6111256;28;20240;-66
2022/01/10 07:00:30;;;;;;;11.53;10.43;;;;;;;;;;6105527;28;20240;-67
2022/01/10 07:03:56;;;;;;;11.13;10.13;;;;;;;;;;6115271;28;20236;-66
2022/01/10 07:07:19;;;;;;;10.63;9.63;;;;;;;;;;6113424;28;20232;-65
2022/01/10 07:10:42;;;;;;;10.60;9.63;;;;;;;;;;6123294;28;20681;-65
2022/01/10 07:14:04;;;;;;;11.77;10.77;;;;;;;;;;6126460;28;20622;-65
2022/01/10 07:17:25;;;;;;;12.37;11.27;;;;;;;;;;6124336;28;20551;-66
2022/01/10 07:20:46;;;;;;;13.80;12.50;;;;;;;;;;6128363;28;20228;-66
2022/01/10 07:24:08;;;;;;;13.20;12.00;;;;;;;;;;6132792;28;20245;-66
2022/01/10 07:27:29;;;;;;;14.07;12.77;;;;;;;;;;6118972;28;20239;-66
2022/01/10 07:30:49;;;;;;;14.90;13.50;;;;;;;;;;6117007;28;20327;-66
2022/01/10 07:34:14;;;;;;;14.40;12.97;;;;;;;;;;6113724;28;20314;-66
2022/01/10 07:37:34;;;;;;;15.30;13.83;;;;;;;;;;6113487;28;20232;-65
2022/01/10 07:40:56;;;;;;;15.47;13.87;;;;;;;;;;6109545;28;20235;-67
2022/01/10 07:44:17;;;;;;;15.33;13.40;;;;;;;;;;6115811;28;20327;-66
2022/01/10 07:47:38;;;;;;;13.80;12.53;;;;;;;;;;6117888;28;20231;-65
2022/01/10 07:50:58;;;;;;;14.27;12.87;;;;;;;;;;6111874;28;20236;-66
2022/01/10 07:54:19;;;;;;;14.93;13.47;;;;;;;;;;6114335;28;20322;-66
2022/01/10 07:57:41;;;;;;;15.80;14.23;;;;;;;;;;6114436;28;20232;-66
2022/01/10 08:01:02;;;;;;;17.77;15.93;;;;;;;;;;6106430;28;20232;-67
2022/01/10 08:04:22;;;;;;;18.70;16.90;;;;;;;;;;6112205;28;20235;-66
2022/01/10 08:07:43;;;;;;;17.17;15.43;;;;;;;;;;6106494;28;20334;-67
2022/01/10 08:11:04;;;;;;;15.40;13.83;;;;;;;;;;6111925;28;20649;-66
2022/01/10 08:14:26;;;;;;;17.23;15.53;;;;;;;;;;6111940;28;20494;-66
2022/01/10 08:17:47;;;;;;;17.17;15.37;;;;;;;;;;6109782;28;20231;-66
2022/01/10 08:21:07;;;;;;;18.27;16.43;;;;;;;;;;6110423;28;20327;-65
2022/01/10 08:24:28;;;;;;;20.03;18.03;;;;;;;;;;6112492;28;20239;-65
2022/01/10 08:27:49;;;;;;;18.13;16.23;;;;;;;;;;6110416;28;20620;-65
2022/01/10 08:31:11;;;;;;;18.53;16.73;;;;;;;;;;6109928;28;20236;-66
2022/01/10 08:34:31;;;;;;;18.77;16.87;;;;;;;;;;6116302;28;20854;-68
2022/01/10 08:37:52;;;;;;;18.17;16.37;;;;;;;;;;6103065;28;20236;-67
2022/01/10 08:41:12;;;;;;;18.80;16.87;;;;;;;;;;6083736;29;20694;-67
2022/01/10 08:44:33;;;;;;;19.63;17.53;;;;;;;;;;6109545;28;20236;-66
2022/01/10 08:47:55;;;;;;;18.70;16.70;;;;;;;;;;6111739;28;20236;-67
2022/01/10 08:51:15;;;;;;;19.37;17.37;;;;;;;;;;6088430;29;20233;-66
2022/01/10 08:54:36;;;;;;;19.10;17.20;;;;;;;;;;6089283;29;20641;-65
2022/01/10 08:57:57;;;;;;;20.70;18.13;;;;;;;;;;6093094;28;20239;-65
2022/01/10 09:01:19;;;;;;;24.17;19.57;;;;;;;;;;6102294;28;20227;-66
2022/01/10 09:04:41;;;;;;;23.30;19.73;;;;;;;;;;6105060;28;20240;-66
2022/01/10 09:08:03;;;;;;;25.40;22.40;;;;;;;;;;6098131;28;20229;-65
2022/01/10 09:11:23;;;;;;;26.93;21.87;;;;;;;;;;6104153;28;20886;-65
2022/01/10 09:14:44;;;;;;;27.10;22.83;;;;;;;;;;6098067;28;20239;-66
2022/01/10 09:18:04;;;;;;;31.50;23.37;;;;;;;;;;6105345;28;20271;-65
2022/01/10 09:21:26;;;;;;;25.70;21.37;;;;;;;;;;6109118;28;20561;-65
2022/01/10 09:24:47;;;;;;;29.40;23.20;;;;;;;;;;6105333;28;20232;-66
2022/01/10 09:28:07;;;;;;;29.90;22.07;;;;;;;;;;6098813;28;20590;-66
2022/01/10 09:31:28;;;;;;;25.03;21.30;;;;;;;;;;6101506;28;20256;-66
2022/01/10 09:34:49;;;;;;;36.57;24.57;;;;;;;;;;6107444;28;20232;-66
2022/01/10 09:38:11;;;;;;;30.30;23.37;;;;;;;;;;6103388;28;20236;-65
2022/01/10 09:41:31;;;;;;;33.33;24.33;;;;;;;;;;6104166;28;20224;-67
2022/01/10 09:44:53;;;;;;;35.23;26.43;;;;;;;;;;6100974;28;20247;-66
2022/01/10 09:48:13;;;;;;;32.17;23.23;;;;;;;;;;6104477;28;20265;-66
2022/01/10 09:51:34;;;;;;;32.23;26.50;;;;;;;;;;6101420;28;20232;-65
2022/01/10 09:54:56;;;;;;;30.50;23.97;;;;;;;;;;6106700;28;20231;-66
2022/01/10 09:58:17;;;;;;;33.47;24.43;;;;;;;;;;6102805;28;20333;-65
2022/01/10 10:01:37;;;;;;;32.93;26.57;;;;;;;;;;6101708;28;20227;-64
2022/01/10 10:04:58;;;;;;;32.37;23.70;;;;;;;;;;6107349;28;20319;-66
2022/01/10 10:08:20;;;;;;;31.27;23.53;;;;;;;;;;6109642;28;20728;-66
2022/01/10 10:11:43;;;;;;;26.43;20.33;;;;;;;;;;6126676;28;20236;-66
2022/01/10 10:15:06;;;;;;;26.93;23.03;;;;;;;;;;6108062;28;20315;-66
2022/01/10 10:18:30;;;;;;;27.07;21.53;;;;;;;;;;6109306;28;20243;-67
2022/01/10 10:21:51;;;;;;;26.70;21.73;;;;;;;;;;6114271;28;20609;-66
2022/01/10 10:25:13;;;;;;;29.87;23.57;;;;;;;;;;6111838;28;20232;-66
2022/01/10 10:28:37;;;;;;;27.23;22.07;;;;;;;;;;6103478;28;20239;-66
2022/01/10 10:31:57;;;;;;;26.30;21.27;;;;;;;;;;6103694;28;20240;-66
2022/01/10 10:35:19;;;;;;;24.83;20.50;;;;;;;;;;6106581;28;20220;-67
2022/01/10 10:38:39;;;;;;;24.67;21.07;;;;;;;;;;6069615;28;1081270;-66
2022/01/10 10:42:01;;;;;;;25.47;21.27;;;;;;;;;;6108337;28;20606;-66
2022/01/10 10:45:25;;;;;;;29.60;23.70;;;;;;;;;;6098877;28;20239;-65
2022/01/10 10:48:47;;;;;;;26.60;21.53;;;;;;;;;;6096811;28;20244;-64
2022/01/10 10:52:10;;;;;;;25.07;21.03;;;;;;;;;;6093901;28;20570;-65
2022/01/10 10:55:30;;;;;;;24.70;22.03;;;;;;;;;;6109360;28;20231;-66
2022/01/10 10:58:51;;;;;;;28.73;22.90;;;;;;;;;;6111539;28;20244;-64
2022/01/10 11:02:13;;;;;;;28.63;24.03;;;;;;;;;;6106737;28;20637;-64
2022/01/10 11:05:34;;;;;;;26.40;22.27;;;;;;;;;;6106157;28;20633;-64
2022/01/10 11:08:54;;;;;;;27.97;22.70;;;;;;;;;;6111247;28;20240;-65
2022/01/10 11:12:17;;;;;;;32.23;25.10;;;;;;;;;;6109851;28;20680;-66
2022/01/10 11:15:38;;;;;;;25.23;21.83;;;;;;;;;;6115451;28;20322;-66
2022/01/10 11:19:00;;;;;;;27.47;23.67;;;;;;;;;;6113249;28;20247;-66
2022/01/10 11:22:21;;;;;;;27.80;24.43;;;;;;;;;;6115257;28;20335;-65
2022/01/10 11:25:42;;;;;;;30.53;25.03;;;;;;;;;;6112164;28;20339;-65
2022/01/10 11:33:27;;;;;;;30.00;25.47;;;;;;;;;;6045931;28;20234;-65
2022/01/10 11:36:50;;;;;;;28.63;24.03;;;;;;;;;;6064085;28;20232;-65
2022/01/10 11:40:11;;;;;;;28.50;23.33;;;;;;;;;;6110855;28;20613;-65
2022/01/10 11:43:43;;;;;;;32.10;26.83;;;;;;;;;;6110371;28;20326;-66
2022/01/10 11:47:03;;;;;;;28.90;23.60;;;;;;;;;;6069208;28;20688;-63
2022/01/10 11:50:25;;;;;;;28.93;25.37;;;;;;;;;;6100773;28;20231;-66
2022/01/10 11:53:47;;;;;;;26.83;22.93;;;;;;;;;;6109940;28;20521;-65
2022/01/10 11:57:09;;;;;;;29.30;22.83;;;;;;;;;;6112874;28;20228;-63
2022/01/10 12:00:35;;;;;;;30.73;24.67;;;;;;;;;;6107462;28;20251;-66
2022/01/10 12:03:56;;;;;;;28.87;25.70;;;;;;;;;;6122129;28;20240;-65
2022/01/10 12:07:17;;;;;;;30.90;23.97;;;;;;;;;;6116670;28;20593;-65
2022/01/10 12:10:39;;;;;;;28.97;24.80;;;;;;;;;;6116095;28;20239;-66
2022/01/10 12:14:00;;;;;;;28.57;24.20;;;;;;;;;;6112956;28;20231;-65
2022/01/10 12:17:20;;;;;;;25.20;22.50;;;;;;;;;;6114366;28;20246;-66
2022/01/10 12:20:41;;;;;;;25.47;22.73;;;;;;;;;;6117000;28;20240;-65
2022/01/10 12:24:02;;;;;;;30.20;23.77;;;;;;;;;;6099090;28;20240;-65
2022/01/10 12:27:24;;;;;;;27.40;24.33;;;;;;;;;;6113641;28;20231;-63
2022/01/10 12:30:45;;;;;;;30.17;25.43;;;;;;;;;;6115237;28;20240;-65
2022/01/10 12:34:08;;;;;;;25.50;22.77;;;;;;;;;;6095362;28;20247;-64
2022/01/10 12:37:29;;;;;;;26.57;23.70;;;;;;;;;;6111819;28;20236;-66
2022/01/10 12:40:50;;;;;;;24.80;22.27;;;;;;;;;;6109196;28;20606;-65
2022/01/10 12:44:12;;;;;;;27.53;23.30;;;;;;;;;;6096522;28;20235;-66
2022/01/10 12:47:32;;;;;;;27.63;24.27;;;;;;;;;;6098692;28;20746;-64
2022/01/10 12:50:54;;;;;;;26.00;22.07;;;;;;;;;;6100199;28;21318;-64
2022/01/10 12:54:16;;;;;;;29.55;26.65;;;;;;;;;;6093433;28;20762;-65
2022/01/10 12:57:37;;;;;;;23.33;20.87;;;;;;;;;;6105292;28;20570;-66
2022/01/10 13:00:59;;;;;;;27.03;21.97;;;;;;;;;;6106082;28;20240;-65
2022/01/10 13:04:21;;;;;;;24.53;21.80;;;;;;;;;;6102550;28;20223;-65
2022/01/10 13:07:42;;;;;;;22.80;19.97;;;;;;;;;;6107426;28;20716;-65
2022/01/10 13:11:08;;;;;;;25.80;21.00;;;;;;;;;;6105145;28;20314;-65
2022/01/10 13:14:35;;;;;;;27.83;24.00;;;;;;;;;;6107657;28;20236;-66
2022/01/10 13:17:58;;;;;;;31.40;26.03;;;;;;;;;;6103311;28;20814;-66
2022/01/10 13:21:26;;;;;;;33.13;25.73;;;;;;;;;;6123160;28;20518;-66
2022/01/10 13:24:50;;;;;;;28.00;24.93;;;;;;;;;;6107341;28;20227;-65
2022/01/10 13:28:12;;;;;;;31.20;25.33;;;;;;;;;;6104519;28;20235;-66
2022/01/10 13:31:36;;;;;;;29.70;24.47;;;;;;;;;;6105582;28;20303;-66
2022/01/10 13:35:10;;;;;;;33.47;25.77;;;;;;;;;;6103613;28;20300;-64
2022/01/10 13:38:30;;;;;;;29.30;25.37;;;;;;;;;;6105415;28;20284;-67
2022/01/10 13:41:58;;;;;;;32.43;26.03;;;;;;;;;;6099366;28;20342;-65
2022/01/10 13:45:22;;;;;;;35.03;24.57;;;;;;;;;;6104042;28;20772;-67
2022/01/10 13:48:48;;;;;;;35.90;29.70;;;;;;;;;;6104312;28;20770;-66
2022/01/10 13:52:10;;;;;;;40.93;31.13;;;;;;;;;;6098171;28;20246;-64
2022/01/10 13:55:31;;;;;;;38.77;29.60;;;;;;;;;;6122252;28;20227;-64
2022/01/10 13:58:53;;;;;;;36.83;31.10;;;;;;;;;;6102535;28;20593;-66
2022/01/10 14:02:16;;;;;;;39.50;30.77;;;;;;;;;;6100354;28;20858;-65
2022/01/10 14:05:36;;;;;;;35.73;29.03;;;;;;;;;;6106453;28;20239;-65
2022/01/10 14:08:59;;;;;;;36.20;27.90;;;;;;;;;;6101920;28;20318;-65
2022/01/10 14:12:19;;;;;;;33.50;28.00;;;;;;;;;;6112718;28;20231;-66
2022/01/10 14:15:40;;;;;;;34.43;29.40;;;;;;;;;;6114750;28;20236;-66
2022/01/10 14:19:02;;;;;;;34.07;27.37;;;;;;;;;;6115583;28;20633;-65
2022/01/10 14:22:22;;;;;;;34.87;28.20;;;;;;;;;;6110702;28;20231;-66
2022/01/10 14:25:44;;;;;;;34.83;27.63;;;;;;;;;;6110149;28;20255;-66
2022/01/10 14:29:05;;;;;;;36.37;29.17;;;;;;;;;;6117830;28;20227;-65
2022/01/10 14:32:26;;;;;;;36.50;30.37;;;;;;;;;;6109611;28;20232;-66
2022/01/10 14:35:46;;;;;;;40.00;30.70;;;;;;;;;;6114517;28;21690;-65
2022/01/10 14:39:07;;;;;;;35.63;29.47;;;;;;;;;;6100422;28;20231;-66
2022/01/10 14:42:30;;;;;;;39.77;30.10;;;;;;;;;;6113650;28;20623;-65
2022/01/10 14:45:51;;;;;;;40.47;31.50;;;;;;;;;;6113626;28;20705;-66
2022/01/10 14:49:11;;;;;;;41.97;32.07;;;;;;;;;;6113757;28;20235;-65
2022/01/10 14:52:32;;;;;;;40.87;33.47;;;;;;;;;;6098720;28;20318;-65
2022/01/10 14:55:55;;;;;;;34.63;29.53;;;;;;;;;;6110014;28;20232;-65
2022/01/10 14:59:18;;;;;;;39.37;30.83;;;;;;;;;;6115465;28;20550;-65
2022/01/10 15:02:38;;;;;;;37.93;30.93;;;;;;;;;;6112779;28;20784;-65
2022/01/10 15:05:59;;;;;;;40.83;32.53;;;;;;;;;;6107064;28;20228;-66
2022/01/10 15:09:19;;;;;;;36.13;30.73;;;;;;;;;;6103375;28;20232;-66
2022/01/10 15:12:40;;;;;;;39.23;29.77;;;;;;;;;;6078649;28;20240;-63
2022/01/10 15:16:02;;;;;;;40.23;32.33;;;;;;;;;;6093941;28;20236;-65
2022/01/10 15:19:25;;;;;;;36.40;30.27;;;;;;;;;;6089903;28;21550;-66
2022/01/10 15:22:46;;;;;;;37.03;30.30;;;;;;;;;;6104902;28;20236;-65
2022/01/10 15:26:07;;;;;;;39.23;30.07;;;;;;;;;;6116389;28;20244;-66
2022/01/10 15:29:28;;;;;;;37.63;29.27;;;;;;;;;;6111205;28;20940;-65
2022/01/10 15:32:50;;;;;;;36.30;28.00;;;;;;;;;;6111998;28;20243;-64
2022/01/10 15:36:12;;;;;;;36.67;29.00;;;;;;;;;;6116193;28;20251;-64
2022/01/10 15:39:33;;;;;;;36.70;29.77;;;;;;;;;;6112325;28;20232;-65
2022/01/10 15:42:54;;;;;;;38.27;30.97;;;;;;;;;;6111451;28;20232;-65
2022/01/10 15:46:15;;;;;;;41.07;31.93;;;;;;;;;;6113935;28;20236;-66
2022/01/10 15:49:37;;;;;;;44.10;33.17;;;;;;;;;;6111646;28;20482;-65
2022/01/10 15:52:57;;;;;;;44.23;35.80;;;;;;;;;;6111779;28;20244;-66
2022/01/10 15:56:18;;;;;;;43.13;32.57;;;;;;;;;;6113830;28;20235;-66
2022/01/10 15:59:40;;;;;;;43.50;34.17;;;;;;;;;;6114520;28;20228;-65
2022/01/10 16:03:00;;;;;;;40.33;33.10;;;;;;;;;;6110151;28;20232;-65
2022/01/10 16:06:22;;;;;;;41.93;32.37;;;;;;;;;;6109296;28;20232;-67
2022/01/10 16:09:42;;;;;;;40.57;31.17;;;;;;;;;;6113205;28;20236;-65
2022/01/10 16:13:03;;;;;;;40.70;31.47;;;;;;;;;;6111616;28;20346;-66
2022/01/10 16:16:25;;;;;;;43.83;34.20;;;;;;;;;;6115742;28;20239;-66
2022/01/10 16:19:47;;;;;;;41.97;33.03;;;;;;;;;;6109878;28;20236;-67
2022/01/10 16:23:09;;;;;;;40.97;29.87;;;;;;;;;;6118447;28;20232;-66
2022/01/10 16:26:31;;;;;;;43.93;32.80;;;;;;;;;;6110794;28;20532;-67
2022/01/10 16:29:51;;;;;;;41.80;32.67;;;;;;;;;;6112550;28;20231;-67
2022/01/10 16:33:11;;;;;;;41.17;31.13;;;;;;;;;;6116039;28;20756;-65
2022/01/10 16:36:32;;;;;;;41.33;31.27;;;;;;;;;;6105731;28;20236;-65
2022/01/10 16:39:54;;;;;;;41.53;31.03;;;;;;;;;;6114287;28;20255;-66
2022/01/10 16:43:14;;;;;;;36.67;30.90;;;;;;;;;;6114242;28;20548;-67
2022/01/10 16:46:35;;;;;;;35.80;29.00;;;;;;;;;;6106423;28;20231;-66
2022/01/10 16:49:55;;;;;;;38.10;30.23;;;;;;;;;;6116353;28;20228;-67
2022/01/10 16:53:16;;;;;;;38.63;32.03;;;;;;;;;;6114895;28;20658;-65
2022/01/10 16:56:38;;;;;;;36.60;31.53;;;;;;;;;;6115362;28;20231;-66
2022/01/10 16:59:59;;;;;;;40.13;32.40;;;;;;;;;;6114644;28;20236;-65
2022/01/10 17:03:20;;;;;;;40.53;30.47;;;;;;;;;;6111474;28;20239;-65
2022/01/10 17:06:41;;;;;;;41.60;32.33;;;;;;;;;;6115007;28;20331;-66
2022/01/10 17:10:01;;;;;;;46.37;36.03;;;;;;;;;;6114341;28;20649;-65
2022/01/10 17:13:23;;;;;;;42.20;32.63;;;;;;;;;;6113110;28;20239;-66
2022/01/10 17:16:44;;;;;;;40.07;34.33;;;;;;;;;;6111353;28;20244;-66
2022/01/10 17:20:05;;;;;;;41.77;35.37;;;;;;;;;;6115831;28;20228;-66
2022/01/10 17:23:25;;;;;;;42.23;34.57;;;;;;;;;;6110084;28;20534;-66
2022/01/10 17:26:46;;;;;;;42.73;35.17;;;;;;;;;;6111280;28;20239;-65
2022/01/10 17:30:10;;;;;;;41.60;33.30;;;;;;;;;;6106097;28;20607;-66
2022/01/10 17:33:31;;;;;;;42.20;33.83;;;;;;;;;;6113607;28;20228;-66
2022/01/10 17:36:52;;;;;;;40.53;31.63;;;;;;;;;;6112157;28;20613;-66
2022/01/10 17:40:13;;;;;;;38.53;31.50;;;;;;;;;;6108314;28;20330;-67
2022/01/10 17:43:33;;;;;;;36.07;30.50;;;;;;;;;;6109853;28;20492;-65
2022/01/10 17:46:55;;;;;;;35.60;31.03;;;;;;;;;;6113188;28;20254;-65
2022/01/10 17:50:18;;;;;;;35.80;29.17;;;;;;;;;;6111698;28;20231;-64
2022/01/10 17:53:40;;;;;;;40.40;31.37;;;;;;;;;;6111790;28;20285;-64
2022/01/10 17:57:02;;;;;;;43.87;35.03;;;;;;;;;;6109685;28;20239;-66
2022/01/10 18:00:23;;;;;;;38.53;31.37;;;;;;;;;;6117262;28;20228;-65
2022/01/10 18:03:45;;;;;;;38.20;31.77;;;;;;;;;;6112850;28;20244;-66
2022/01/10 18:07:05;;;;;;;38.97;29.87;;;;;;;;;;6113629;28;20231;-65
2022/01/10 18:10:27;;;;;;;42.43;32.70;;;;;;;;;;6112465;28;20235;-65
2022/01/10 18:13:48;;;;;;;43.63;32.60;;;;;;;;;;6116654;28;20236;-65
2022/01/10 18:17:08;;;;;;;40.97;32.30;;;;;;;;;;6119722;28;20239;-65
2022/01/10 18:20:30;;;;;;;40.40;32.43;;;;;;;;;;6110704;28;20244;-66
2022/01/10 18:23:51;;;;;;;39.30;31.80;;;;;;;;;;6113567;28;20234;-66
2022/01/10 18:27:11;;;;;;;40.13;31.63;;;;;;;;;;6111829;28;20232;-65
2022/01/10 18:30:32;;;;;;;37.77;31.83;;;;;;;;;;6112766;28;20615;-66
2022/01/10 18:33:52;;;;;;;40.13;30.63;;;;;;;;;;6108463;28;20617;-65
2022/01/10 18:37:14;;;;;;;37.87;32.00;;;;;;;;;;6113805;28;20235;-66
2022/01/10 18:40:36;;;;;;;35.40;28.57;;;;;;;;;;6115121;28;20676;-65
2022/01/10 18:43:59;;;;;;;38.23;31.17;;;;;;;;;;6110196;28;20602;-66
2022/01/10 18:47:20;;;;;;;38.10;29.93;;;;;;;;;;6112465;28;20231;-66
2022/01/10 18:50:41;;;;;;;35.17;29.10;;;;;;;;;;6111804;28;20271;-65
2022/01/10 18:54:03;;;;;;;36.53;30.33;;;;;;;;;;6112636;28;20232;-66
2022/01/10 18:57:24;;;;;;;38.87;29.60;;;;;;;;;;6111097;28;20227;-67
2022/01/10 19:00:45;;;;;;;33.70;27.37;;;;;;;;;;6109685;28;20243;-65
2022/01/10 19:04:06;;;;;;;39.40;30.57;;;;;;;;;;6103776;28;20251;-66
2022/01/10 19:07:26;;;;;;;36.10;27.73;;;;;;;;;;6118222;28;20842;-65
2022/01/10 19:10:51;;;;;;;34.77;28.30;;;;;;;;;;6109214;28;20236;-66
2022/01/10 19:14:11;;;;;;;31.77;28.33;;;;;;;;;;6100297;28;20239;-65
2022/01/10 19:17:35;;;;;;;31.97;26.00;;;;;;;;;;6108485;28;20244;-65
2022/01/10 19:20:55;;;;;;;33.60;27.73;;;;;;;;;;6115772;28;20248;-65
2022/01/10 19:24:16;;;;;;;33.60;26.23;;;;;;;;;;6116908;28;20506;-65
2022/01/10 19:27:38;;;;;;;34.83;27.27;;;;;;;;;;6113877;28;20231;-66
2022/01/10 19:30:58;;;;;;;36.20;29.70;;;;;;;;;;6111489;28;20239;-65
2022/01/10 19:34:19;;;;;;;36.90;28.70;;;;;;;;;;6101115;28;20244;-65
2022/01/10 19:37:41;;;;;;;38.30;29.47;;;;;;;;;;6109275;28;20251;-65
2022/01/10 19:41:02;;;;;;;37.13;29.53;;;;;;;;;;6114915;28;20239;-66
2022/01/10 19:44:24;;;;;;;33.40;28.27;;;;;;;;;;6112037;28;20227;-65
2022/01/10 19:47:46;;;;;;;38.43;29.27;;;;;;;;;;6111201;28;20682;-65
2022/01/10 19:51:06;;;;;;;40.20;30.30;;;;;;;;;;6104130;28;20564;-65